Time;durP1;ratioP1;P1;durP2;ratioP2;P2;SDS_P1;SDS_P2;PMS_P1;PMS_P2;Temp;Humidity;BMP_temperature;BMP_pressure;BME280_temperature;BME280_humidity;BME280_pressure;Samples;Min_cycle;Max_cycle;Signal;HPM_P1;HPM_P2
2022/07/25 00:00:30;;;;;;;13.13;8.98;;;;;;;;;;6277580;22;20170;-88
2022/07/25 00:03:39;;;;;;;12.40;8.85;;;;;;;;;;6278723;22;20169;-88
2022/07/25 00:06:46;;;;;;;15.50;8.73;;;;;;;;;;6276827;22;20166;-87
2022/07/25 00:09:53;;;;;;;15.20;8.70;;;;;;;;;;6277484;22;20149;-87
2022/07/25 00:12:59;;;;;;;13.93;8.93;;;;;;;;;;6276570;22;20213;-89
2022/07/25 00:16:06;;;;;;;11.50;8.07;;;;;;;;;;6277892;22;20154;-89
2022/07/25 00:19:13;;;;;;;12.80;8.70;;;;;;;;;;6280147;22;20162;-89
2022/07/25 00:22:20;;;;;;;13.73;9.02;;;;;;;;;;6277305;22;20162;-88
2022/07/25 00:25:26;;;;;;;13.65;8.60;;;;;;;;;;6274681;22;20664;-90
2022/07/25 00:28:33;;;;;;;13.30;9.25;;;;;;;;;;6274728;22;20177;-90
2022/07/25 00:31:40;;;;;;;15.52;8.88;;;;;;;;;;6274639;22;20233;-89
2022/07/25 00:34:48;;;;;;;13.05;9.07;;;;;;;;;;6274351;22;20162;-88
2022/07/25 00:37:53;;;;;;;13.90;9.27;;;;;;;;;;6273380;22;20222;-89
2022/07/25 00:40:59;;;;;;;14.00;9.15;;;;;;;;;;6274176;22;20170;-87
2022/07/25 00:44:06;;;;;;;13.02;8.65;;;;;;;;;;6276537;22;20197;-89
2022/07/25 00:47:12;;;;;;;12.82;8.38;;;;;;;;;;6275513;22;20195;-87
2022/07/25 00:50:23;;;;;;;14.88;9.40;;;;;;;;;;6276326;22;20162;-89
2022/07/25 00:53:29;;;;;;;13.52;8.93;;;;;;;;;;6188542;22;20306;-89
2022/07/25 00:56:38;;;;;;;14.45;8.98;;;;;;;;;;6152882;23;20168;-90
2022/07/25 00:59:44;;;;;;;15.75;9.43;;;;;;;;;;6151700;22;20157;-88
2022/07/25 01:02:51;;;;;;;13.82;9.07;;;;;;;;;;6151755;22;20176;-89
2022/07/25 01:05:59;;;;;;;15.73;9.38;;;;;;;;;;6150991;23;20229;-89
2022/07/25 01:09:06;;;;;;;13.60;9.25;;;;;;;;;;6152184;23;20200;-88
2022/07/25 01:12:15;;;;;;;13.55;9.50;;;;;;;;;;6151405;23;20184;-88
2022/07/25 01:15:26;;;;;;;12.48;9.20;;;;;;;;;;6167615;23;20172;-89
2022/07/25 01:18:33;;;;;;;14.55;9.85;;;;;;;;;;6150538;23;20200;-88
2022/07/25 01:21:42;;;;;;;15.05;9.93;;;;;;;;;;6151425;23;20211;-90
2022/07/25 01:24:48;;;;;;;18.23;9.55;;;;;;;;;;6151708;23;20169;-91
2022/07/25 01:27:57;;;;;;;18.20;10.05;;;;;;;;;;6148756;23;20219;-92
2022/07/25 01:31:03;;;;;;;15.68;9.70;;;;;;;;;;6149594;22;20173;-91
2022/07/25 01:34:11;;;;;;;16.90;10.40;;;;;;;;;;6149647;22;20169;-89
2022/07/25 01:37:18;;;;;;;17.30;10.02;;;;;;;;;;6150595;23;20229;-90
2022/07/25 01:40:23;;;;;;;17.92;10.07;;;;;;;;;;6150925;22;20173;-91
2022/07/25 01:43:28;;;;;;;16.58;10.93;;;;;;;;;;6149803;22;20164;-90
2022/07/25 01:46:36;;;;;;;16.30;10.23;;;;;;;;;;6148385;22;20169;-90
2022/07/25 01:49:42;;;;;;;15.23;10.63;;;;;;;;;;6149107;23;20172;-90
2022/07/25 01:52:49;;;;;;;21.73;11.00;;;;;;;;;;6150335;23;20264;-90
2022/07/25 01:55:54;;;;;;;14.77;9.85;;;;;;;;;;6148871;23;20167;-91
2022/07/25 01:58:59;;;;;;;18.20;10.77;;;;;;;;;;6149391;23;20171;-90
2022/07/25 02:02:05;;;;;;;17.45;10.30;;;;;;;;;;6149599;23;20283;-92
2022/07/25 02:05:11;;;;;;;15.93;10.27;;;;;;;;;;6149134;23;20176;-90
2022/07/25 02:08:19;;;;;;;16.05;10.90;;;;;;;;;;6148551;22;20277;-91
2022/07/25 02:11:24;;;;;;;15.43;10.70;;;;;;;;;;6151031;22;20196;-89
2022/07/25 02:14:29;;;;;;;15.88;9.95;;;;;;;;;;6150767;22;20192;-90
2022/07/25 02:17:34;;;;;;;17.52;9.73;;;;;;;;;;6150163;22;20167;-91
2022/07/25 02:20:40;;;;;;;16.10;10.85;;;;;;;;;;6148314;23;20173;-90
2022/07/25 02:23:47;;;;;;;19.98;10.48;;;;;;;;;;6149561;22;20168;-89
2022/07/25 02:26:52;;;;;;;17.35;10.68;;;;;;;;;;6150133;22;20172;-89
2022/07/25 02:29:59;;;;;;;16.15;10.45;;;;;;;;;;6149576;23;20172;-88
2022/07/25 02:33:06;;;;;;;14.63;9.27;;;;;;;;;;6148935;23;20510;-91
2022/07/25 02:36:12;;;;;;;13.85;9.60;;;;;;;;;;6150518;23;20168;-89
2022/07/25 02:39:20;;;;;;;14.80;9.77;;;;;;;;;;6168232;22;20201;-89
2022/07/25 02:42:28;;;;;;;16.40;10.70;;;;;;;;;;6151116;23;20248;-90
2022/07/25 02:45:35;;;;;;;14.50;9.95;;;;;;;;;;6150295;23;20169;-90
2022/07/25 02:48:41;;;;;;;13.32;9.23;;;;;;;;;;6150143;23;20161;-89
2022/07/25 02:51:46;;;;;;;15.90;10.27;;;;;;;;;;6148363;22;20169;-91
2022/07/25 02:54:54;;;;;;;17.85;9.70;;;;;;;;;;6148588;22;20220;-89
2022/07/25 02:58:01;;;;;;;15.55;10.02;;;;;;;;;;6148652;23;20203;-89
2022/07/25 03:01:08;;;;;;;17.25;9.82;;;;;;;;;;6150529;23;20213;-90
2022/07/25 03:04:14;;;;;;;15.50;10.48;;;;;;;;;;6149444;22;20172;-90
2022/07/25 03:07:22;;;;;;;17.90;10.90;;;;;;;;;;6150193;22;20169;-89
2022/07/25 03:10:30;;;;;;;18.20;10.70;;;;;;;;;;6167045;22;20177;-90
2022/07/25 03:13:35;;;;;;;15.85;9.88;;;;;;;;;;6150003;22;20222;-89
2022/07/25 03:16:41;;;;;;;17.25;10.23;;;;;;;;;;6150067;23;20181;-89
2022/07/25 03:19:51;;;;;;;18.52;10.45;;;;;;;;;;6131516;22;20196;-89
2022/07/25 03:22:58;;;;;;;15.60;10.75;;;;;;;;;;6148671;23;20168;-90
2022/07/25 03:26:04;;;;;;;20.55;11.48;;;;;;;;;;6148744;23;20177;-89
2022/07/25 03:29:12;;;;;;;19.63;10.98;;;;;;;;;;6150024;23;20167;-89
2022/07/25 03:32:20;;;;;;;16.00;11.65;;;;;;;;;;6149003;23;20191;-89
2022/07/25 03:35:27;;;;;;;17.20;11.20;;;;;;;;;;6148990;23;20164;-88
2022/07/25 03:38:33;;;;;;;18.25;11.93;;;;;;;;;;6148790;23;20315;-89
2022/07/25 03:41:40;;;;;;;19.70;10.77;;;;;;;;;;6148750;23;20172;-89
2022/07/25 03:44:48;;;;;;;16.48;10.25;;;;;;;;;;6148883;23;20184;-89
2022/07/25 03:47:54;;;;;;;19.10;10.70;;;;;;;;;;6148819;22;20169;-91
2022/07/25 03:51:02;;;;;;;15.27;9.50;;;;;;;;;;6149721;22;20164;-91
2022/07/25 03:54:12;;;;;;;17.85;10.25;;;;;;;;;;6151942;22;20195;-90
2022/07/25 03:57:20;;;;;;;14.32;10.00;;;;;;;;;;6148883;23;20177;-88
2022/07/25 04:01:01;;;;;;;14.95;10.02;;;;;;;;;;6150384;23;20219;-89
2022/07/25 04:04:40;;;;;;;17.48;10.95;;;;;;;;;;6149960;22;20165;-89
2022/07/25 04:07:58;;;;;;;17.83;10.55;;;;;;;;;;6150543;22;20172;-90
2022/07/25 04:11:06;;;;;;;17.52;11.23;;;;;;;;;;6150093;23;20173;-90
2022/07/25 04:14:16;;;;;;;17.23;10.70;;;;;;;;;;6150280;23;20608;-90
2022/07/25 04:17:23;;;;;;;18.38;10.82;;;;;;;;;;6150467;22;20169;-90
2022/07/25 04:20:30;;;;;;;14.93;10.43;;;;;;;;;;6150662;22;20223;-89
2022/07/25 04:23:41;;;;;;;16.50;10.18;;;;;;;;;;6151632;22;20188;-87
2022/07/25 04:26:48;;;;;;;15.63;10.07;;;;;;;;;;6152029;23;20203;-89
2022/07/25 04:29:57;;;;;;;16.85;10.23;;;;;;;;;;6148680;22;20173;-90
2022/07/25 04:33:04;;;;;;;15.38;9.82;;;;;;;;;;6149295;23;20168;-88
2022/07/25 04:36:10;;;;;;;18.98;9.95;;;;;;;;;;6149805;23;20173;-91
2022/07/25 04:39:19;;;;;;;16.92;10.60;;;;;;;;;;6150000;23;20238;-89
2022/07/25 04:42:26;;;;;;;17.10;9.98;;;;;;;;;;6149909;22;20169;-90
2022/07/25 04:45:34;;;;;;;17.83;10.30;;;;;;;;;;6149289;22;20192;-90
2022/07/25 04:48:45;;;;;;;20.00;11.15;;;;;;;;;;6149545;23;20184;-90
2022/07/25 04:51:51;;;;;;;20.40;11.30;;;;;;;;;;6134234;23;20243;-89
2022/07/25 04:55:00;;;;;;;17.88;11.15;;;;;;;;;;6148423;23;20212;-89
2022/07/25 04:58:07;;;;;;;17.88;11.73;;;;;;;;;;6148097;23;20172;-89
2022/07/25 05:01:15;;;;;;;15.90;10.68;;;;;;;;;;6148714;23;20176;-91
2022/07/25 05:04:21;;;;;;;19.77;10.05;;;;;;;;;;6148405;23;20177;-89
2022/07/25 05:07:27;;;;;;;16.77;10.63;;;;;;;;;;6150072;23;20164;-89
2022/07/25 05:10:36;;;;;;;22.13;10.50;;;;;;;;;;6151394;22;20295;-89
2022/07/25 05:13:43;;;;;;;17.75;10.90;;;;;;;;;;6148278;22;20237;-89
2022/07/25 05:16:51;;;;;;;17.02;10.65;;;;;;;;;;6149247;23;20175;-90
2022/07/25 05:19:58;;;;;;;16.90;10.32;;;;;;;;;;6147920;22;20231;-90
2022/07/25 05:23:06;;;;;;;15.40;10.15;;;;;;;;;;6148627;23;20180;-90
2022/07/25 05:26:15;;;;;;;16.75;11.02;;;;;;;;;;6149478;23;20164;-90
2022/07/25 05:29:22;;;;;;;15.75;10.55;;;;;;;;;;6148306;22;20176;-90
2022/07/25 05:32:32;;;;;;;17.08;10.50;;;;;;;;;;6148514;22;20678;-90
2022/07/25 05:35:38;;;;;;;16.10;10.35;;;;;;;;;;6148468;23;20148;-91
2022/07/25 05:38:43;;;;;;;18.77;10.85;;;;;;;;;;6150583;22;20211;-90
2022/07/25 05:41:51;;;;;;;20.50;10.98;;;;;;;;;;6148678;22;20184;-91
2022/07/25 05:44:56;;;;;;;17.33;10.10;;;;;;;;;;6146828;22;20160;-90
2022/07/25 05:48:03;;;;;;;23.08;10.93;;;;;;;;;;6149946;23;20222;-89
2022/07/25 05:51:09;;;;;;;22.77;10.70;;;;;;;;;;6150115;22;20211;-88
2022/07/25 05:54:14;;;;;;;15.27;10.38;;;;;;;;;;6147387;23;20520;-90
2022/07/25 05:57:23;;;;;;;16.98;10.40;;;;;;;;;;6147504;22;20222;-90
2022/07/25 06:00:30;;;;;;;17.85;10.38;;;;;;;;;;6146896;23;20180;-90
2022/07/25 06:03:37;;;;;;;15.57;10.48;;;;;;;;;;6147589;22;20168;-91
2022/07/25 06:06:49;;;;;;;13.23;9.98;;;;;;;;;;6147151;22;20214;-90
2022/07/25 06:09:58;;;;;;;20.05;10.02;;;;;;;;;;6148862;22;20501;-89
2022/07/25 06:13:05;;;;;;;20.83;9.45;;;;;;;;;;6150027;22;20179;-90
2022/07/25 06:16:13;;;;;;;16.67;9.93;;;;;;;;;;6148103;23;20623;-88
2022/07/25 06:19:21;;;;;;;20.77;9.70;;;;;;;;;;6149245;23;20261;-89
2022/07/25 06:22:31;;;;;;;16.38;9.25;;;;;;;;;;6148982;23;20192;-88
2022/07/25 06:25:38;;;;;;;13.82;9.15;;;;;;;;;;6149339;23;20168;-88
2022/07/25 06:28:46;;;;;;;14.85;8.95;;;;;;;;;;6147806;23;20168;-91
2022/07/25 06:31:52;;;;;;;17.75;9.45;;;;;;;;;;6148834;23;20184;-88
2022/07/25 06:35:04;;;;;;;16.92;8.90;;;;;;;;;;6147599;23;20176;-89
2022/07/25 06:38:09;;;;;;;18.73;9.25;;;;;;;;;;6152857;22;20184;-89
2022/07/25 06:41:15;;;;;;;14.00;8.48;;;;;;;;;;6151409;22;20195;-91
2022/07/25 06:44:22;;;;;;;13.52;8.00;;;;;;;;;;6147706;23;20171;-91
2022/07/25 06:47:31;;;;;;;19.73;8.30;;;;;;;;;;6149014;22;20556;-92
2022/07/25 06:50:38;;;;;;;16.27;8.48;;;;;;;;;;6148044;22;20164;-92
2022/07/25 06:53:47;;;;;;;12.20;7.43;;;;;;;;;;6148434;23;20192;-91
2022/07/25 06:56:52;;;;;;;15.30;7.95;;;;;;;;;;6148482;22;20237;-91
2022/07/25 06:59:57;;;;;;;12.20;7.57;;;;;;;;;;6149493;22;20180;-90
2022/07/25 07:03:03;;;;;;;12.98;6.97;;;;;;;;;;6152913;23;20180;-91
2022/07/25 07:06:10;;;;;;;13.05;7.00;;;;;;;;;;6153510;23;20219;-92
2022/07/25 07:09:18;;;;;;;11.68;7.75;;;;;;;;;;6152900;22;20183;-89
2022/07/25 07:12:23;;;;;;;12.20;7.32;;;;;;;;;;6150082;23;20267;-91
2022/07/25 07:15:33;;;;;;;10.65;7.07;;;;;;;;;;6148908;23;20164;-90
2022/07/25 07:18:39;;;;;;;8.82;6.68;;;;;;;;;;6150122;22;20165;-90
2022/07/25 07:21:46;;;;;;;9.73;6.78;;;;;;;;;;6152179;23;20172;-91
2022/07/25 07:24:51;;;;;;;10.07;7.28;;;;;;;;;;6150015;23;20666;-88
2022/07/25 07:27:57;;;;;;;9.10;6.13;;;;;;;;;;6149986;23;20172;-89
2022/07/25 07:31:03;;;;;;;19.88;6.97;;;;;;;;;;6151210;22;20208;-91
2022/07/25 07:34:08;;;;;;;7.35;6.43;;;;;;;;;;6152404;22;20172;-91
2022/07/25 07:37:29;;;;;;;14.40;6.18;;;;;;;;;;6153660;22;20704;-91
2022/07/25 07:40:36;;;;;;;9.63;6.45;;;;;;;;;;6150400;22;20207;-90
2022/07/25 07:43:41;;;;;;;8.20;6.25;;;;;;;;;;6151005;23;20224;-91
2022/07/25 07:46:47;;;;;;;14.15;7.00;;;;;;;;;;6153568;23;20183;-91
2022/07/25 07:49:53;;;;;;;7.93;6.35;;;;;;;;;;6151192;22;20259;-92
2022/07/25 07:52:59;;;;;;;10.73;5.97;;;;;;;;;;6151827;22;20329;-90
2022/07/25 07:56:05;;;;;;;9.80;5.97;;;;;;;;;;6150295;22;20168;-94
2022/07/25 07:59:11;;;;;;;10.77;6.30;;;;;;;;;;6152325;23;20224;-91
2022/07/25 08:02:16;;;;;;;9.00;6.28;;;;;;;;;;6152264;22;20623;-90
2022/07/25 08:05:22;;;;;;;12.93;6.80;;;;;;;;;;6154139;23;20223;-91
2022/07/25 08:08:27;;;;;;;14.00;6.38;;;;;;;;;;6147667;23;20592;-90
2022/07/25 08:11:35;;;;;;;6.97;6.07;;;;;;;;;;6148171;22;20175;-91
2022/07/25 08:14:40;;;;;;;8.52;6.78;;;;;;;;;;6146259;22;20167;-89
2022/07/25 08:17:47;;;;;;;10.98;6.60;;;;;;;;;;6146776;23;20502;-89
2022/07/25 08:20:53;;;;;;;9.27;6.18;;;;;;;;;;6148259;22;20614;-92
2022/07/25 08:23:58;;;;;;;9.38;6.55;;;;;;;;;;6147639;22;20164;-90
2022/07/25 08:27:05;;;;;;;8.18;6.38;;;;;;;;;;6145584;23;20595;-88
2022/07/25 08:30:12;;;;;;;10.02;6.88;;;;;;;;;;6145830;23;20200;-93
2022/07/25 08:33:19;;;;;;;10.10;6.78;;;;;;;;;;6147196;23;20619;-86
2022/07/25 08:36:26;;;;;;;13.27;6.85;;;;;;;;;;6149053;23;20155;-90
2022/07/25 08:39:33;;;;;;;13.65;6.22;;;;;;;;;;6149527;22;20250;-90
2022/07/25 08:42:40;;;;;;;9.10;6.30;;;;;;;;;;6147767;23;20163;-91
2022/07/25 08:45:50;;;;;;;12.02;6.18;;;;;;;;;;6146684;23;20171;-91
2022/07/25 08:48:56;;;;;;;11.43;6.88;;;;;;;;;;6151288;23;20172;-89
2022/07/25 08:52:02;;;;;;;10.52;6.57;;;;;;;;;;6152628;22;20253;-89
2022/07/25 08:55:09;;;;;;;9.02;6.68;;;;;;;;;;6149443;22;20157;-91
2022/07/25 08:58:19;;;;;;;7.38;6.30;;;;;;;;;;6149323;23;20223;-92
2022/07/25 09:01:28;;;;;;;9.73;6.63;;;;;;;;;;6148819;23;20222;-89
2022/07/25 09:04:34;;;;;;;33.33;7.75;;;;;;;;;;6150880;22;20183;-92
2022/07/25 09:07:41;;;;;;;18.52;7.13;;;;;;;;;;6149206;23;20156;-91
2022/07/25 09:10:47;;;;;;;9.80;6.28;;;;;;;;;;6149136;22;20615;-90
2022/07/25 09:14:00;;;;;;;12.93;6.50;;;;;;;;;;6148773;23;20249;-90
2022/07/25 09:17:06;;;;;;;10.60;6.10;;;;;;;;;;6149901;22;20178;-90
2022/07/25 09:20:12;;;;;;;13.02;6.18;;;;;;;;;;6147014;23;20501;-90
2022/07/25 09:23:28;;;;;;;7.50;5.80;;;;;;;;;;6148659;23;20219;-90
2022/07/25 09:26:43;;;;;;;9.93;5.95;;;;;;;;;;6147712;22;20183;-90
2022/07/25 09:29:50;;;;;;;8.48;5.57;;;;;;;;;;6147917;23;20196;-90
2022/07/25 09:33:02;;;;;;;12.93;5.60;;;;;;;;;;6148093;23;20214;-89
2022/07/25 09:36:12;;;;;;;12.98;8.23;;;;;;;;;;6146736;22;20268;-89
2022/07/25 12:44:22;;;;;;;13.75;6.28;;;;;;;;;;6117560;22;20326;-91
2022/07/25 12:47:29;;;;;;;7.78;5.93;;;;;;;;;;6266504;22;20165;-89
2022/07/25 22:09:22;;;;;;;10.75;5.93;;;;;;;;;;6292913;22;20210;-90
2022/07/25 22:12:29;;;;;;;11.45;5.38;;;;;;;;;;6277346;22;20172;-88
2022/07/25 22:15:42;;;;;;;24.27;6.10;;;;;;;;;;6277550;22;20170;-91
2022/07/25 22:18:49;;;;;;;14.63;5.47;;;;;;;;;;6276434;22;20162;-91
2022/07/25 22:22:01;;;;;;;11.18;5.47;;;;;;;;;;6275338;22;20174;-90
2022/07/25 22:25:12;;;;;;;13.48;5.75;;;;;;;;;;6277517;22;20150;-92
2022/07/25 22:28:19;;;;;;;11.95;6.28;;;;;;;;;;6275486;22;20166;-91
2022/07/25 22:31:25;;;;;;;16.73;6.68;;;;;;;;;;6276308;22;20645;-90
2022/07/25 22:34:37;;;;;;;12.50;6.53;;;;;;;;;;6276644;22;20158;-91
2022/07/25 22:37:44;;;;;;;5.18;1.48;;;;;;;;;;6279203;22;20178;-91
2022/07/25 22:40:50;;;;;;;34.53;1.83;;;;;;;;;;6277902;22;20169;-91
2022/07/25 22:43:55;;;;;;;9.80;1.63;;;;;;;;;;6279056;22;20173;-93
2022/07/25 22:47:02;;;;;;;4.28;1.40;;;;;;;;;;6278704;22;20166;-92
2022/07/25 22:50:08;;;;;;;1.77;1.40;;;;;;;;;;6277308;22;20161;-90
2022/07/25 22:53:14;;;;;;;5.55;2.08;;;;;;;;;;6279174;22;20189;-88
2022/07/25 22:56:21;;;;;;;1.50;1.40;;;;;;;;;;6278552;22;20174;-91
2022/07/25 22:59:27;;;;;;;2.17;1.25;;;;;;;;;;6278811;22;20169;-91
2022/07/25 23:02:32;;;;;;;1.10;1.00;;;;;;;;;;6278767;22;20162;-91
2022/07/25 23:12:27;;;;;;;2.55;1.30;;;;;;;;;;6283827;22;20162;-92
2022/07/25 23:15:36;;;;;;;1.33;1.10;;;;;;;;;;6283844;22;20177;-93
2022/07/25 23:22:04;;;;;;;2.95;1.83;;;;;;;;;;6284955;22;20228;-90
2022/07/25 23:25:11;;;;;;;1.00;1.00;;;;;;;;;;6285215;22;20166;-92
2022/07/25 23:28:25;;;;;;;0.93;0.85;;;;;;;;;;6302997;22;20166;-92
2022/07/25 23:31:31;;;;;;;2.83;1.48;;;;;;;;;;6284640;22;20177;-90
2022/07/25 23:34:40;;;;;;;1.40;1.30;;;;;;;;;;6267235;22;20174;-92
